Terminal Aerodrome Forecast
Issued by NWS

Home | Current Version | Previous Version | Text Only | Print | Product List | Glossary On
Versions: 1 2 3 4 5 6 7 8 9 10 11 12 13 14
000
FTUS43 KEAX 282344
TAFSTJ
TAF
KSTJ 282344Z 2900/2924 07009KT P6SM OVC015
     FM290500 08011KT P6SM VCSH OVC010
     FM290700 08011KT 6SM SHRA OVC010
     FM290800 07011KT 6SM SHRA OVC008
     FM291600 07016G26KT 2SM SHRA BR OVC003
     FM291800 08012G22KT 2SM BR VCSH OVC003=

USA.gov is the U.S. government's official web portal to all federal, state and local government web resources and services.